createdAt,value
2022-10-13T00:00:49.407Z,49.80
2022-10-13T00:03:16.840Z,47.10
2022-10-13T00:05:46.069Z,45.30
2022-10-13T00:08:14.810Z,44.30
2022-10-13T00:10:41.553Z,42.10
2022-10-13T00:13:08.911Z,43.10
2022-10-13T00:15:44.194Z,42.80
2022-10-13T00:18:11.211Z,42.80
2022-10-13T00:20:46.043Z,41.80
2022-10-13T00:23:12.944Z,40.40
2022-10-13T00:25:44.468Z,40.10
2022-10-13T00:30:38.997Z,41.90
2022-10-13T00:33:05.815Z,40.80
2022-10-13T00:35:33.020Z,42.30
2022-10-13T00:37:59.552Z,41.60
2022-10-13T00:40:26.044Z,38.70
2022-10-13T00:42:52.593Z,41.40
2022-10-13T00:45:29.170Z,41.40
2022-10-13T00:47:58.898Z,38.90
2022-10-13T00:50:32.805Z,41.00
2022-10-13T00:53:01.585Z,41.20
2022-10-13T00:55:31.823Z,40.70
2022-10-13T00:58:04.931Z,41.40
2022-10-13T01:00:34.707Z,44.70
2022-10-13T01:03:03.102Z,44.40
2022-10-13T01:05:30.889Z,47.50
2022-10-13T01:07:58.110Z,43.60
2022-10-13T01:10:49.954Z,42.60
2022-10-13T01:13:28.168Z,45.30
2022-10-13T01:16:15.394Z,50.60
2022-10-13T01:19:09.482Z,44.40
2022-10-13T01:21:44.871Z,44.90
2022-10-13T01:24:20.795Z,45.50
2022-10-13T01:27:08.942Z,46.10
2022-10-13T01:30:02.720Z,45.20
2022-10-13T01:32:41.441Z,41.10
2022-10-13T01:35:32.454Z,40.90
2022-10-13T01:38:09.240Z,35.90
2022-10-13T01:40:44.753Z,38.00
2022-10-13T01:43:28.722Z,36.50
2022-10-13T01:46:20.364Z,35.80
2022-10-13T01:48:46.834Z,35.30
2022-10-13T01:51:18.166Z,33.60
2022-10-13T01:53:46.977Z,35.10
2022-10-13T01:56:13.996Z,33.20
2022-10-13T01:58:40.942Z,32.90
2022-10-13T02:01:15.217Z,35.00
2022-10-13T02:03:47.738Z,33.90
2022-10-13T02:06:24.767Z,31.40
2022-10-13T02:08:57.908Z,31.70
2022-10-13T02:11:25.306Z,31.40
2022-10-13T02:14:07.516Z,32.30
2022-10-13T02:16:38.372Z,35.90
2022-10-13T02:19:06.604Z,36.20
2022-10-13T02:21:33.960Z,35.30
2022-10-13T02:24:00.763Z,35.90
2022-10-13T02:26:27.566Z,41.50
2022-10-13T02:28:54.092Z,57.70
2022-10-13T02:31:20.569Z,48.30
2022-10-13T02:33:47.068Z,48.70
2022-10-13T02:36:13.509Z,46.40
2022-10-13T02:38:40.015Z,42.10
2022-10-13T02:41:06.651Z,45.40
2022-10-13T02:43:33.540Z,49.40
2022-10-13T02:46:00.025Z,47.60
2022-10-13T02:48:26.520Z,48.70
2022-10-13T02:50:53.119Z,41.80
2022-10-13T02:53:19.591Z,46.00
2022-10-13T02:55:46.138Z,42.00
2022-10-13T02:58:12.784Z,38.30
2022-10-13T03:00:39.305Z,39.00
2022-10-13T03:03:06.782Z,39.60
2022-10-13T03:05:33.529Z,54.30
2022-10-13T03:07:59.992Z,57.90
2022-10-13T03:10:26.506Z,51.90
2022-10-13T03:12:55.014Z,53.10
2022-10-13T03:15:21.499Z,48.40
2022-10-13T03:17:48.478Z,35.50
2022-10-13T03:20:15.330Z,36.70
2022-10-13T03:22:44.859Z,37.30
2022-10-13T03:25:14.032Z,34.30
2022-10-13T03:27:40.574Z,33.40
2022-10-13T03:30:07.930Z,35.20
2022-10-13T03:32:34.363Z,36.90
2022-10-13T03:35:00.906Z,43.40
2022-10-13T03:37:29.989Z,48.10
2022-10-13T03:39:56.649Z,49.00
2022-10-13T03:42:23.516Z,53.20
2022-10-13T03:44:55.245Z,60.90
2022-10-13T03:47:23.127Z,63.40
2022-10-13T03:49:49.668Z,63.00
2022-10-13T03:52:16.126Z,60.60
2022-10-13T03:54:42.732Z,55.00
2022-10-13T03:57:09.296Z,52.60
2022-10-13T03:59:36.953Z,52.20
2022-10-13T04:02:04.132Z,58.10
2022-10-13T04:04:30.767Z,74.00
2022-10-13T04:06:57.314Z,65.20
2022-10-13T04:09:23.850Z,71.60
2022-10-13T04:11:51.621Z,59.20
2022-10-13T04:14:19.181Z,55.90
2022-10-13T04:16:46.954Z,54.50
2022-10-13T04:19:15.081Z,52.50
2022-10-13T04:21:42.811Z,58.60
2022-10-13T04:24:13.300Z,53.70
2022-10-13T04:26:40.494Z,56.80
2022-10-13T04:29:09.418Z,52.90
2022-10-13T04:31:37.173Z,61.90
2022-10-13T04:34:04.312Z,62.60
2022-10-13T04:36:30.742Z,56.40
2022-10-13T04:38:57.500Z,50.10
2022-10-13T04:41:24.100Z,47.30
2022-10-13T04:43:51.729Z,49.40
2022-10-13T04:46:21.644Z,54.80
2022-10-13T04:48:48.891Z,135.10
2022-10-13T04:51:18.426Z,138.10
2022-10-13T04:53:45.245Z,99.80
2022-10-13T04:56:14.175Z,68.80
2022-10-13T04:58:45.929Z,78.50
2022-10-13T05:01:21.194Z,59.30
2022-10-13T05:04:01.674Z,66.60
2022-10-13T05:06:34.175Z,68.10
2022-10-13T05:09:01.193Z,67.50
2022-10-13T05:11:29.053Z,69.10
2022-10-13T05:13:56.749Z,60.80
2022-10-13T05:16:24.056Z,59.10
2022-10-13T05:18:54.695Z,56.50
2022-10-13T05:21:24.368Z,55.30
2022-10-13T05:23:51.769Z,49.40
2022-10-13T05:26:18.622Z,57.10
2022-10-13T05:28:45.315Z,50.10
2022-10-13T05:31:17.871Z,50.50
2022-10-13T05:33:45.162Z,50.30
2022-10-13T05:36:18.226Z,47.90
2022-10-13T05:38:45.247Z,50.30
2022-10-13T05:41:14.346Z,50.80
2022-10-13T05:43:42.449Z,52.50
2022-10-13T05:46:09.173Z,43.70
2022-10-13T05:48:36.674Z,50.00
2022-10-13T05:51:25.841Z,49.70
2022-10-13T05:54:04.526Z,44.00
2022-10-13T05:56:36.109Z,50.40
2022-10-13T05:59:05.820Z,53.70
2022-10-13T06:01:36.733Z,49.40
2022-10-13T06:04:08.508Z,47.60
2022-10-13T06:06:35.672Z,48.20
2022-10-13T06:09:02.346Z,53.40
2022-10-13T06:11:28.942Z,55.40
2022-10-13T06:13:55.379Z,52.10
2022-10-13T06:16:21.972Z,55.20
2022-10-13T06:18:48.769Z,57.60
2022-10-13T06:21:15.226Z,58.80
2022-10-13T06:23:41.818Z,53.20
2022-10-13T06:26:08.597Z,51.10
2022-10-13T06:28:35.478Z,57.50
2022-10-13T06:31:05.462Z,58.90
2022-10-13T06:33:32.755Z,56.70
2022-10-13T06:36:06.989Z,56.40
2022-10-13T06:38:34.003Z,52.90
2022-10-13T06:41:04.647Z,56.20
2022-10-13T06:43:39.727Z,55.20
2022-10-13T06:46:07.657Z,65.90
2022-10-13T06:48:34.506Z,60.20
2022-10-13T06:51:10.685Z,65.20
2022-10-13T06:53:37.932Z,63.00
2022-10-13T06:56:06.840Z,64.50
2022-10-13T06:58:35.231Z,64.00
2022-10-13T07:01:02.320Z,59.90
2022-10-13T07:03:28.938Z,58.30
2022-10-13T07:06:00.671Z,56.60
2022-10-13T07:08:27.212Z,56.70
2022-10-13T07:10:53.637Z,56.20
2022-10-13T07:15:51.463Z,55.50
2022-10-13T07:18:17.978Z,52.20
2022-10-13T07:20:44.415Z,46.80
2022-10-13T07:23:10.958Z,53.50
2022-10-13T07:25:37.833Z,43.90
2022-10-13T07:28:04.341Z,47.60
2022-10-13T07:30:31.047Z,43.70
2022-10-13T07:32:57.601Z,46.70
2022-10-13T07:35:28.236Z,49.00
2022-10-13T07:37:57.167Z,48.00
2022-10-13T07:40:23.934Z,45.80
2022-10-13T07:42:51.058Z,44.40
2022-10-13T07:45:17.603Z,43.70
2022-10-13T07:47:44.142Z,42.70
2022-10-13T07:50:10.580Z,39.90
2022-10-13T07:52:37.252Z,35.10
2022-10-13T07:55:04.537Z,34.00
2022-10-13T07:57:31.226Z,34.20
2022-10-13T07:59:57.764Z,32.10
2022-10-13T08:02:24.304Z,30.70
2022-10-13T08:04:50.847Z,31.20
2022-10-13T08:07:17.806Z,28.80
2022-10-13T08:09:45.863Z,28.90
2022-10-13T08:12:12.330Z,27.70
2022-10-13T08:14:38.972Z,28.70
2022-10-13T08:17:05.606Z,28.20
2022-10-13T08:19:32.150Z,29.80
2022-10-13T08:21:59.961Z,28.00
2022-10-13T08:24:27.389Z,27.90
2022-10-13T08:26:54.023Z,27.90
2022-10-13T08:29:22.423Z,27.20
2022-10-13T08:31:52.609Z,26.70
2022-10-13T08:34:19.952Z,27.10
2022-10-13T08:36:46.435Z,25.30
2022-10-13T08:39:13.281Z,25.50
2022-10-13T08:41:42.899Z,24.80
2022-10-13T08:45:06.293Z,24.40
2022-10-13T08:47:36.042Z,24.30
2022-10-13T08:50:10.645Z,22.10
2022-10-13T08:52:55.108Z,21.30
2022-10-13T08:55:28.277Z,21.20
2022-10-13T08:57:54.818Z,19.70
2022-10-13T09:00:21.364Z,20.00
2022-10-13T09:02:49.179Z,19.90
2022-10-13T09:05:47.007Z,19.60
2022-10-13T09:08:19.623Z,17.50
2022-10-13T09:10:52.360Z,20.10
2022-10-13T09:13:19.884Z,20.40
2022-10-13T09:15:49.161Z,20.40
2022-10-13T09:18:15.979Z,20.40
2022-10-13T09:20:42.824Z,20.40
2022-10-13T09:23:23.019Z,19.00
2022-10-13T09:25:51.784Z,17.30
2022-10-13T09:28:28.519Z,17.70
2022-10-13T09:31:26.330Z,19.60
2022-10-13T09:34:20.713Z,17.00
2022-10-13T09:37:05.704Z,15.90
2022-10-13T09:39:33.883Z,15.80
2022-10-13T09:42:20.911Z,13.40
2022-10-13T09:44:56.755Z,12.20
2022-10-13T09:47:23.444Z,14.30
2022-10-13T09:50:15.361Z,13.80
2022-10-13T09:52:42.959Z,14.80
2022-10-13T09:55:32.671Z,14.00
2022-10-13T09:58:24.106Z,14.40
2022-10-13T10:00:52.494Z,13.20
2022-10-13T10:03:27.675Z,13.10
2022-10-13T10:05:56.986Z,12.80
2022-10-13T10:09:02.124Z,12.50
2022-10-13T10:11:35.119Z,11.40
2022-10-13T10:14:27.944Z,12.00
2022-10-13T10:17:17.047Z,12.30
2022-10-13T10:19:58.627Z,11.40
2022-10-13T10:22:30.919Z,12.00
2022-10-13T10:25:33.956Z,10.40
2022-10-13T10:28:34.328Z,11.20
2022-10-13T10:31:25.701Z,10.10
2022-10-13T10:34:20.033Z,9.80
2022-10-13T10:36:57.397Z,9.90
2022-10-13T10:39:32.116Z,9.10
2022-10-13T10:42:20.065Z,7.70
2022-10-13T10:44:50.628Z,9.50
2022-10-13T10:47:27.044Z,8.60
2022-10-13T10:50:00.149Z,8.70
2022-10-13T10:52:42.592Z,6.90
2022-10-13T10:55:23.066Z,6.50
2022-10-13T10:58:10.821Z,7.30
2022-10-13T11:00:45.608Z,6.60
2022-10-13T11:03:33.680Z,6.90
2022-10-13T11:06:02.987Z,6.60
2022-10-13T11:08:45.190Z,5.20
2022-10-13T11:11:24.870Z,4.70
2022-10-13T11:14:05.796Z,4.80
2022-10-13T11:16:35.044Z,4.90
2022-10-13T11:19:26.062Z,5.90
2022-10-13T11:24:34.202Z,5.30
2022-10-13T11:27:16.092Z,6.20
2022-10-13T11:29:45.598Z,6.20
2022-10-13T11:32:27.424Z,6.40
2022-10-13T11:35:00.589Z,5.80
2022-10-13T11:38:06.891Z,5.80
2022-10-13T11:41:11.801Z,6.00
2022-10-13T11:44:00.361Z,6.10
2022-10-13T11:46:38.365Z,6.80
2022-10-13T11:49:37.883Z,6.00
2022-10-13T11:52:56.462Z,7.00
2022-10-13T11:55:38.984Z,5.90
2022-10-13T11:58:14.348Z,6.70
2022-10-13T12:00:54.592Z,7.10
2022-10-13T12:03:27.063Z,6.40
2022-10-13T12:05:56.578Z,6.10
2022-10-13T12:08:24.141Z,6.10
2022-10-13T12:10:54.864Z,6.60
2022-10-13T12:13:28.529Z,6.10
2022-10-13T12:16:03.660Z,6.80
2022-10-13T12:18:35.997Z,5.70
2022-10-13T12:21:11.533Z,5.10
2022-10-13T12:23:38.394Z,4.90
2022-10-13T12:26:05.654Z,5.20
2022-10-13T12:29:00.957Z,5.50
2022-10-13T12:31:40.846Z,4.80
2022-10-13T12:34:25.310Z,5.20
2022-10-13T12:37:00.592Z,4.80
2022-10-13T12:39:29.325Z,5.70
2022-10-13T12:41:57.377Z,4.90
2022-10-13T12:44:27.112Z,4.80
2022-10-13T12:46:56.420Z,4.90
2022-10-13T12:49:25.967Z,4.70
2022-10-13T12:51:58.112Z,4.50
2022-10-13T12:54:29.156Z,4.00
2022-10-13T12:56:59.188Z,4.60
2022-10-13T12:59:28.073Z,4.60
2022-10-13T13:01:58.349Z,4.10
2022-10-13T13:04:39.788Z,4.30
2022-10-13T13:07:22.591Z,4.10
2022-10-13T13:10:07.439Z,4.30
2022-10-13T13:12:36.078Z,4.60
2022-10-13T13:15:32.090Z,5.10
2022-10-13T13:18:29.458Z,4.40
2022-10-13T13:20:56.730Z,4.90
2022-10-13T13:23:23.784Z,4.60
2022-10-13T13:26:01.124Z,4.20
2022-10-13T13:28:32.494Z,4.10
2022-10-13T13:31:00.219Z,4.80
2022-10-13T13:33:26.744Z,4.50
2022-10-13T13:35:54.106Z,4.30
2022-10-13T13:38:20.646Z,4.50
2022-10-13T13:40:47.294Z,4.80
2022-10-13T13:43:13.766Z,4.60
2022-10-13T13:45:40.476Z,4.60
2022-10-13T13:48:07.215Z,4.60
2022-10-13T13:50:36.223Z,5.40
2022-10-13T13:53:03.365Z,5.40
2022-10-13T13:55:30.192Z,4.80
2022-10-13T13:57:57.211Z,4.80
2022-10-13T14:00:23.805Z,5.80
2022-10-13T14:02:50.553Z,8.10
2022-10-13T14:05:17.191Z,5.10
2022-10-13T14:07:44.245Z,5.90
2022-10-13T14:10:11.295Z,5.40
2022-10-13T14:12:38.347Z,5.60
2022-10-13T14:15:05.499Z,5.50
2022-10-13T14:17:31.974Z,5.80
2022-10-13T14:19:58.485Z,4.90
2022-10-13T14:22:25.323Z,5.40
2022-10-13T14:24:52.108Z,6.00
2022-10-13T14:27:18.628Z,6.40
2022-10-13T14:29:45.158Z,6.20
2022-10-13T14:32:12.016Z,7.10
2022-10-13T14:34:38.429Z,10.50
2022-10-13T14:37:05.130Z,12.80
2022-10-13T14:39:31.623Z,10.60
2022-10-13T14:41:58.078Z,8.80
2022-10-13T14:44:25.390Z,7.10
2022-10-13T14:46:51.831Z,8.10
2022-10-13T14:49:18.267Z,10.60
2022-10-13T14:51:44.733Z,10.40
2022-10-13T14:54:11.273Z,11.90
2022-10-13T14:56:37.925Z,8.60
2022-10-13T14:59:06.812Z,10.40
2022-10-13T15:01:34.279Z,9.80
2022-10-13T15:04:01.718Z,13.30
2022-10-13T15:06:28.674Z,10.80
2022-10-13T15:08:55.793Z,14.00
2022-10-13T15:11:22.795Z,13.80
2022-10-13T15:13:49.313Z,16.00
2022-10-13T15:16:21.595Z,17.50
2022-10-13T15:18:48.315Z,10.60
2022-10-13T15:21:15.954Z,10.80
2022-10-13T15:23:43.374Z,13.30
2022-10-13T15:26:11.950Z,11.50
2022-10-13T15:28:42.068Z,13.20
2022-10-13T15:31:08.739Z,15.70
2022-10-13T15:33:35.172Z,17.20
2022-10-13T15:36:01.906Z,16.30
2022-10-13T15:38:28.547Z,13.50
2022-10-13T15:41:02.858Z,15.50
2022-10-13T15:43:29.693Z,12.20
2022-10-13T15:46:00.664Z,14.30
2022-10-13T15:50:53.853Z,15.00
2022-10-13T15:53:20.498Z,13.20
2022-10-13T15:55:47.747Z,13.60
2022-10-13T15:58:14.382Z,13.20
2022-10-13T16:00:41.562Z,12.90
2022-10-13T16:03:13.814Z,13.80
2022-10-13T16:05:42.440Z,16.60
2022-10-13T16:08:09.166Z,25.70
2022-10-13T16:10:39.000Z,14.00
2022-10-13T16:13:05.604Z,14.50
2022-10-13T16:15:32.141Z,17.40
2022-10-13T16:17:58.597Z,17.20
2022-10-13T16:20:25.168Z,17.20
2022-10-13T16:22:53.804Z,19.30
2022-10-13T16:25:20.348Z,39.90
2022-10-13T16:27:46.859Z,40.50
2022-10-13T16:30:13.312Z,36.10
2022-10-13T16:32:40.270Z,26.20
2022-10-13T16:35:07.728Z,21.80
2022-10-13T16:37:34.477Z,37.90
2022-10-13T16:40:00.988Z,32.10
2022-10-13T16:42:27.549Z,29.00
2022-10-13T16:44:54.091Z,30.00
2022-10-13T16:47:20.769Z,30.80
2022-10-13T16:49:47.581Z,30.60
2022-10-13T16:52:14.084Z,38.80
2022-10-13T16:54:40.555Z,49.20
2022-10-13T16:57:07.195Z,55.20
2022-10-13T16:59:33.734Z,33.00
2022-10-13T17:02:00.127Z,37.70
2022-10-13T17:04:27.023Z,43.60
2022-10-13T17:06:53.557Z,36.70
2022-10-13T17:09:19.965Z,37.50
2022-10-13T17:11:46.642Z,36.90
2022-10-13T17:14:13.275Z,35.70
2022-10-13T17:16:39.815Z,45.70
2022-10-13T17:19:06.865Z,50.80
2022-10-13T17:21:34.026Z,55.70
2022-10-13T17:24:00.763Z,49.70
2022-10-13T17:26:27.306Z,43.30
2022-10-13T17:28:54.055Z,37.90
2022-10-13T17:31:23.067Z,38.90
2022-10-13T17:33:50.244Z,45.90
2022-10-13T17:36:22.964Z,47.90
2022-10-13T17:38:50.704Z,40.60
2022-10-13T17:41:18.358Z,41.90
2022-10-13T17:43:45.370Z,45.70
2022-10-13T17:49:01.488Z,58.60
2022-10-13T17:51:28.130Z,53.30
2022-10-13T17:53:54.976Z,56.10
2022-10-13T17:56:23.821Z,53.10
2022-10-13T17:58:51.537Z,56.70
2022-10-13T18:01:20.958Z,47.30
2022-10-13T18:03:50.328Z,48.80
2022-10-13T18:06:17.453Z,56.90
2022-10-13T18:08:44.276Z,46.10
2022-10-13T18:11:13.552Z,40.90
2022-10-13T18:13:40.705Z,44.90
2022-10-13T18:16:11.489Z,49.30
2022-10-13T18:18:38.410Z,48.00
2022-10-13T18:21:07.335Z,51.60
2022-10-13T18:23:35.872Z,52.80
2022-10-13T18:26:11.778Z,55.10
2022-10-13T18:28:39.858Z,49.90
2022-10-13T18:31:11.607Z,52.30
2022-10-13T18:33:38.926Z,51.60
2022-10-13T18:36:24.115Z,60.20
2022-10-13T18:38:56.604Z,57.50
2022-10-13T18:41:24.457Z,60.70
2022-10-13T18:43:51.353Z,59.80
2022-10-13T18:46:18.456Z,60.90
2022-10-13T18:48:45.108Z,60.40
2022-10-13T18:51:14.219Z,67.20
2022-10-13T18:53:42.786Z,66.60
2022-10-13T18:56:12.980Z,64.00
2022-10-13T18:58:39.472Z,69.20
2022-10-13T19:01:09.483Z,69.40
2022-10-13T19:03:37.853Z,84.60
2022-10-13T19:06:06.945Z,139.30
2022-10-13T19:08:34.205Z,111.90
2022-10-13T19:11:01.052Z,109.00
2022-10-13T19:13:27.851Z,105.70
2022-10-13T19:16:01.527Z,102.40
2022-10-13T19:18:28.761Z,108.70
2022-10-13T19:20:55.717Z,110.10
2022-10-13T19:23:22.263Z,99.80
2022-10-13T19:25:49.221Z,129.70
2022-10-13T19:28:16.707Z,110.20
2022-10-13T19:30:43.653Z,100.70
2022-10-13T19:33:12.116Z,91.70
2022-10-13T19:35:40.592Z,84.50
2022-10-13T19:38:07.235Z,88.40
2022-10-13T19:40:33.880Z,100.60
2022-10-13T19:43:00.323Z,97.10
2022-10-13T19:45:26.876Z,94.70
2022-10-13T19:47:53.307Z,90.70
2022-10-13T19:50:19.833Z,84.00
2022-10-13T19:52:46.382Z,81.50
2022-10-13T19:55:12.784Z,82.10
2022-10-13T19:57:39.255Z,70.30
2022-10-13T20:00:06.613Z,78.30
2022-10-13T20:02:33.155Z,77.60
2022-10-13T20:04:59.695Z,80.80
2022-10-13T20:07:26.440Z,88.70
2022-10-13T20:09:52.879Z,88.40
2022-10-13T20:12:19.297Z,82.70
2022-10-13T20:14:45.960Z,77.60
2022-10-13T20:17:12.479Z,87.60
2022-10-13T20:19:38.948Z,81.10
2022-10-13T20:22:05.480Z,83.00
2022-10-13T20:24:31.922Z,87.50
2022-10-13T20:26:58.349Z,89.40
2022-10-13T20:29:25.103Z,86.50
2022-10-13T20:31:51.519Z,84.60
2022-10-13T20:34:18.080Z,80.00
2022-10-13T20:36:44.513Z,75.70
2022-10-13T20:39:10.954Z,79.70
2022-10-13T20:41:37.386Z,77.70
2022-10-13T20:44:04.133Z,76.50
2022-10-13T20:46:30.775Z,76.30
2022-10-13T20:49:10.539Z,78.60
2022-10-13T20:51:39.528Z,78.00
2022-10-13T20:54:06.068Z,73.90
2022-10-13T20:56:33.494Z,73.20
2022-10-13T20:59:04.805Z,68.20
2022-10-13T21:01:31.833Z,70.70
2022-10-13T21:03:58.539Z,66.10
2022-10-13T21:06:25.714Z,65.50
2022-10-13T21:08:53.100Z,63.00
2022-10-13T21:11:21.274Z,64.10
2022-10-13T21:13:49.209Z,66.10
2022-10-13T21:16:18.131Z,63.10
2022-10-13T21:18:46.535Z,69.60
2022-10-13T21:21:13.013Z,69.40
2022-10-13T21:23:39.512Z,68.80
2022-10-13T21:26:08.358Z,64.70
2022-10-13T21:28:37.382Z,64.10
2022-10-13T21:31:06.526Z,61.60
2022-10-13T21:33:35.737Z,67.40
2022-10-13T21:36:09.438Z,65.80
2022-10-13T21:38:36.570Z,64.30
2022-10-13T21:41:07.833Z,63.80
2022-10-13T21:43:34.581Z,64.00
2022-10-13T21:46:21.912Z,67.30
2022-10-13T21:49:06.327Z,65.90
2022-10-13T21:51:35.570Z,68.40
2022-10-13T21:54:05.188Z,69.20
2022-10-13T21:56:33.147Z,63.80
2022-10-13T21:58:59.632Z,62.40
2022-10-13T22:01:26.656Z,64.50
2022-10-13T22:03:56.004Z,63.30
2022-10-13T22:06:23.233Z,64.10
2022-10-13T22:08:51.399Z,65.80
2022-10-13T22:11:18.669Z,61.80
2022-10-13T22:13:45.812Z,60.40
2022-10-13T22:16:16.148Z,63.50
2022-10-13T22:18:43.372Z,61.60
2022-10-13T22:21:13.744Z,61.10
2022-10-13T22:23:40.783Z,64.80
2022-10-13T22:26:08.243Z,66.00
2022-10-13T22:28:37.460Z,65.00
2022-10-13T22:31:11.821Z,60.10
2022-10-13T22:33:40.389Z,62.00
2022-10-13T22:36:16.803Z,60.80
2022-10-13T22:38:45.234Z,57.40
2022-10-13T22:41:12.062Z,56.00
2022-10-13T22:43:38.569Z,57.80
2022-10-13T22:46:05.346Z,56.30
2022-10-13T22:48:35.831Z,55.00
2022-10-13T22:51:05.905Z,53.70
2022-10-13T22:53:33.674Z,51.80
2022-10-13T22:56:00.908Z,51.20
2022-10-13T22:58:27.378Z,51.50
2022-10-13T23:00:53.822Z,49.10
2022-10-13T23:03:20.588Z,48.50
2022-10-13T23:05:48.526Z,48.80
2022-10-13T23:08:15.090Z,48.50
2022-10-13T23:10:41.681Z,49.90
2022-10-13T23:13:08.290Z,49.10
2022-10-13T23:15:37.972Z,47.30
2022-10-13T23:18:04.580Z,51.50
2022-10-13T23:20:31.015Z,49.40
2022-10-13T23:22:57.494Z,52.40
2022-10-13T23:25:23.930Z,48.20
2022-10-13T23:27:50.401Z,51.20
2022-10-13T23:30:17.012Z,48.10
2022-10-13T23:32:43.552Z,48.60
2022-10-13T23:35:10.204Z,48.90
2022-10-13T23:37:36.676Z,47.10
2022-10-13T23:40:03.387Z,45.00
2022-10-13T23:42:29.863Z,43.60
2022-10-13T23:44:56.356Z,45.40
2022-10-13T23:47:23.261Z,43.70
2022-10-13T23:49:50.122Z,43.90
2022-10-13T23:52:18.886Z,44.60
2022-10-13T23:54:45.365Z,43.80
2022-10-13T23:57:11.842Z,42.30
2022-10-13T23:59:38.359Z,40.40
